Time;durP1;ratioP1;P1;durP2;ratioP2;P2;SDS_P1;SDS_P2;PMS_P1;PMS_P2;Temp;Humidity;BMP_temperature;BMP_pressure;BME280_temperature;BME280_humidity;BME280_pressure;Samples;Min_cycle;Max_cycle;Signal;HPM_P1;HPM_P2
2022/06/21 00:00:59;;;;;;;;;2.33;2.00;;;;;;;;5093336;27;46738;-72
2022/06/21 00:03:25;;;;;;;;;2.00;2.00;;;;;;;;5094315;27;45663;-72
2022/06/21 00:05:51;;;;;;;;;2.33;2.33;;;;;;;;5093836;27;45417;-72
2022/06/21 00:08:21;;;;;;;;;1.67;1.67;;;;;;;;5094573;27;45321;-72
2022/06/21 00:10:47;;;;;;;;;3.00;1.67;;;;;;;;5093689;27;46145;-72
2022/06/21 00:13:12;;;;;;;;;1.00;1.00;;;;;;;;5093635;27;45395;-72
2022/06/21 00:15:38;;;;;;;;;3.50;2.00;;;;;;;;5094539;27;45397;-72
2022/06/21 00:18:04;;;;;;;;;5.00;2.33;;;;;;;;5095964;27;45346;-72
2022/06/21 00:20:29;;;;;;;;;3.33;3.00;;;;;;;;5091840;27;48327;-72
2022/06/21 00:22:54;;;;;;;;;3.00;1.33;;;;;;;;5093727;27;45416;-72
2022/06/21 00:25:24;;;;;;;;;1.33;1.33;;;;;;;;5093380;27;45491;-72
2022/06/21 00:27:50;;;;;;;;;3.00;3.00;;;;;;;;5093684;27;45416;-72
2022/06/21 00:30:15;;;;;;;;;2.67;2.67;;;;;;;;5095333;27;46957;-72
2022/06/21 00:32:41;;;;;;;;;1.33;1.33;;;;;;;;5093198;27;45574;-71
2022/06/21 00:35:11;;;;;;;;;2.00;2.00;;;;;;;;5093084;27;45552;-71
2022/06/21 00:37:36;;;;;;;;;1.00;1.00;;;;;;;;5093129;27;45406;-71
2022/06/21 00:40:05;;;;;;;;;2.00;2.00;;;;;;;;5096078;27;46489;-71
2022/06/21 00:42:31;;;;;;;;;1.00;1.00;;;;;;;;5096556;27;45408;-72
2022/06/21 00:45:11;;;;;;;;;3.00;2.00;;;;;;;;5099487;27;45398;-72
2022/06/21 00:47:42;;;;;;;;;2.00;2.00;;;;;;;;5096433;27;45368;-71
2022/06/21 00:50:17;;;;;;;;;2.00;2.00;;;;;;;;5095236;27;46064;-71
2022/06/21 00:52:46;;;;;;;;;2.00;1.00;;;;;;;;5096891;27;45546;-71
2022/06/21 00:55:29;;;;;;;;;2.67;2.00;;;;;;;;5096942;27;45599;-71
2022/06/21 00:57:56;;;;;;;;;1.00;1.00;;;;;;;;5094720;27;45333;-71
2022/06/21 01:00:30;;;;;;;;;2.00;2.00;;;;;;;;5098293;27;45582;-71
2022/06/21 01:02:56;;;;;;;;;1.00;1.00;;;;;;;;5097231;27;45504;-71
2022/06/21 01:05:22;;;;;;;;;2.33;2.33;;;;;;;;5096252;27;45231;-71
2022/06/21 01:07:48;;;;;;;;;2.00;2.00;;;;;;;;5096647;27;45441;-71
2022/06/21 01:10:16;;;;;;;;;2.00;2.00;;;;;;;;5096465;27;45520;-72
2022/06/21 01:12:50;;;;;;;;;2.00;2.00;;;;;;;;5095535;27;45427;-71
2022/06/21 01:15:21;;;;;;;;;2.00;2.00;;;;;;;;5094759;27;45322;-71
2022/06/21 01:17:48;;;;;;;;;2.33;2.00;;;;;;;;5096259;27;45511;-71
2022/06/21 01:20:17;;;;;;;;;2.67;2.67;;;;;;;;5095658;27;46186;-71
2022/06/21 01:22:54;;;;;;;;;1.67;1.67;;;;;;;;5096225;27;45500;-71
2022/06/21 01:25:38;;;;;;;;;6.00;2.00;;;;;;;;5094792;27;45717;-72
2022/06/21 01:28:04;;;;;;;;;4.00;1.00;;;;;;;;5096437;27;45440;-71
2022/06/21 01:30:29;;;;;;;;;2.00;2.00;;;;;;;;5096079;27;46149;-71
2022/06/21 01:32:58;;;;;;;;;4.33;2.00;;;;;;;;5098400;27;45358;-71
2022/06/21 01:35:42;;;;;;;;;2.00;2.00;;;;;;;;5094339;27;45327;-71
2022/06/21 01:38:10;;;;;;;;;3.33;2.67;;;;;;;;5096920;27;45544;-71
2022/06/21 01:40:39;;;;;;;;;1.00;1.00;;;;;;;;5093837;27;47422;-72
2022/06/21 01:43:08;;;;;;;;;1.67;1.67;;;;;;;;5095711;27;45504;-72
2022/06/21 01:45:36;;;;;;;;;2.00;2.00;;;;;;;;5096540;27;45273;-71
2022/06/21 01:48:12;;;;;;;;;2.00;2.00;;;;;;;;5098487;27;45499;-72
2022/06/21 01:50:39;;;;;;;;;1.00;1.00;;;;;;;;5093361;27;46355;-71
2022/06/21 01:53:07;;;;;;;;;1.33;1.00;;;;;;;;5095943;27;45527;-71
2022/06/21 01:55:39;;;;;;;;;2.00;2.00;;;;;;;;5095756;27;45416;-71
2022/06/21 01:58:05;;;;;;;;;3.00;3.00;;;;;;;;5094554;27;45513;-72
2022/06/21 02:00:32;;;;;;;;;1.67;1.00;;;;;;;;5095731;27;46529;-71
2022/06/21 02:03:02;;;;;;;;;3.00;1.00;;;;;;;;5097556;27;45357;-72
2022/06/21 02:05:30;;;;;;;;;2.00;1.67;;;;;;;;5096136;27;45397;-72
2022/06/21 02:07:59;;;;;;;;;2.00;2.00;;;;;;;;5094080;27;45551;-72
2022/06/21 02:10:27;;;;;;;;;2.33;1.00;;;;;;;;5094376;27;46318;-71
2022/06/21 02:13:05;;;;;;;;;2.00;2.00;;;;;;;;5093449;27;45446;-72
2022/06/21 02:15:34;;;;;;;;;3.00;1.67;;;;;;;;5095756;27;45643;-71
2022/06/21 02:18:01;;;;;;;;;1.67;1.67;;;;;;;;5095071;27;45535;-71
2022/06/21 02:20:35;;;;;;;;;1.00;1.00;;;;;;;;5095058;27;47039;-71
2022/06/21 02:23:01;;;;;;;;;2.33;2.33;;;;;;;;5095283;27;45477;-71
2022/06/21 02:25:26;;;;;;;;;2.33;1.00;;;;;;;;5094314;27;45449;-71
2022/06/21 02:27:55;;;;;;;;;3.00;2.00;;;;;;;;5094249;27;45366;-71
2022/06/21 02:30:22;;;;;;;;;2.67;2.00;;;;;;;;5096720;27;45565;-71
2022/06/21 02:32:47;;;;;;;;;2.00;2.00;;;;;;;;5096372;27;45343;-71
2022/06/21 02:35:15;;;;;;;;;2.00;2.00;;;;;;;;5094557;27;45466;-71
2022/06/21 02:37:41;;;;;;;;;3.00;3.00;;;;;;;;5095131;27;45436;-71
2022/06/21 02:40:08;;;;;;;;;1.00;1.00;;;;;;;;5094168;27;45628;-71
2022/06/21 02:42:35;;;;;;;;;2.67;2.00;;;;;;;;5093826;27;45322;-71
2022/06/21 02:45:07;;;;;;;;;2.00;2.00;;;;;;;;5097476;27;45317;-71
2022/06/21 02:47:36;;;;;;;;;2.00;2.00;;;;;;;;5095369;27;45380;-71
2022/06/21 02:50:04;;;;;;;;;2.00;2.00;;;;;;;;5095185;27;46344;-71
2022/06/21 02:52:32;;;;;;;;;1.67;1.67;;;;;;;;5094531;27;45409;-71
2022/06/21 02:54:59;;;;;;;;;3.00;3.00;;;;;;;;5093153;27;45385;-71
2022/06/21 02:57:36;;;;;;;;;2.00;2.00;;;;;;;;5096396;27;45547;-71
2022/06/21 03:00:03;;;;;;;;;2.00;2.00;;;;;;;;5096834;27;45535;-71
2022/06/21 03:02:32;;;;;;;;;4.00;1.00;;;;;;;;5093646;27;45568;-72
2022/06/21 03:04:59;;;;;;;;;3.00;2.00;;;;;;;;5095215;27;45445;-71
2022/06/21 03:07:30;;;;;;;;;2.00;2.00;;;;;;;;5095115;27;45370;-72
2022/06/21 03:09:56;;;;;;;;;2.33;2.00;;;;;;;;5093198;27;46236;-71
2022/06/21 03:12:23;;;;;;;;;3.00;3.00;;;;;;;;5095188;27;45354;-72
2022/06/21 03:14:51;;;;;;;;;4.33;2.00;;;;;;;;5095831;27;45543;-71
2022/06/21 03:17:17;;;;;;;;;1.00;1.00;;;;;;;;5093893;27;45508;-72
2022/06/21 03:19:46;;;;;;;;;1.33;1.33;;;;;;;;5094190;27;46960;-71
2022/06/21 03:22:15;;;;;;;;;7.00;2.67;;;;;;;;5093774;27;46050;-71
2022/06/21 03:24:41;;;;;;;;;3.33;3.00;;;;;;;;5094532;27;45357;-72
2022/06/21 03:27:12;;;;;;;;;4.67;2.00;;;;;;;;5096899;27;45657;-71
2022/06/21 03:29:37;;;;;;;;;1.67;1.67;;;;;;;;5091936;27;45475;-71
2022/06/21 03:32:03;;;;;;;;;2.33;1.33;;;;;;;;5091822;27;45420;-71
2022/06/21 03:34:28;;;;;;;;;2.00;2.00;;;;;;;;5092301;27;45406;-72
2022/06/21 03:36:56;;;;;;;;;1.67;1.00;;;;;;;;5092440;27;45362;-72
2022/06/21 03:41:42;;;;;;;;;1.00;1.00;;;;;;;;5095931;27;45556;-72
2022/06/21 03:42:09;;;;;;;;;2.00;2.00;;;;;;;;5095845;27;45394;-72
2022/06/21 03:44:38;;;;;;;;;1.00;0.67;;;;;;;;5092813;27;45605;-72
2022/06/21 03:47:06;;;;;;;;;1.33;1.33;;;;;;;;5093977;27;45286;-72
2022/06/21 03:49:35;;;;;;;;;2.00;2.00;;;;;;;;5093593;27;46159;-72
2022/06/21 03:52:03;;;;;;;;;3.67;1.67;;;;;;;;5094850;27;46055;-72
2022/06/21 03:54:37;;;;;;;;;1.00;1.00;;;;;;;;5095373;27;45370;-72
2022/06/21 03:57:09;;;;;;;;;1.00;1.00;;;;;;;;5095231;27;45395;-71
2022/06/21 03:59:37;;;;;;;;;1.67;1.67;;;;;;;;5095068;27;47218;-72
2022/06/21 04:02:08;;;;;;;;;1.67;1.67;;;;;;;;5094112;27;45410;-74
2022/06/21 04:04:37;;;;;;;;;4.33;3.67;;;;;;;;5093749;27;46075;-72
2022/06/21 04:07:10;;;;;;;;;1.00;1.00;;;;;;;;5094033;27;45343;-71
2022/06/21 04:09:46;;;;;;;;;2.00;2.00;;;;;;;;5093620;27;46131;-72
2022/06/21 04:12:14;;;;;;;;;1.33;1.33;;;;;;;;5095745;27;46145;-71
2022/06/21 04:14:46;;;;;;;;;3.00;3.00;;;;;;;;5091795;27;45375;-72
2022/06/21 04:17:21;;;;;;;;;2.67;2.67;;;;;;;;5091967;27;45551;-72
2022/06/21 04:20:06;;;;;;;;;1.67;1.00;;;;;;;;5092989;27;46347;-72
2022/06/21 04:22:35;;;;;;;;;1.67;1.67;;;;;;;;5092875;27;45536;-72
2022/06/21 04:25:13;;;;;;;;;3.67;3.67;;;;;;;;5093891;27;45365;-71
2022/06/21 04:27:50;;;;;;;;;4.67;3.33;;;;;;;;5093008;27;45591;-72
2022/06/21 04:30:23;;;;;;;;;0.67;0.67;;;;;;;;5091695;27;45432;-72
2022/06/21 04:33:08;;;;;;;;;2.67;2.67;;;;;;;;5094792;27;45465;-72
2022/06/21 04:35:39;;;;;;;;;3.00;2.00;;;;;;;;5092917;27;45555;-72
2022/06/21 04:38:13;;;;;;;;;1.00;1.00;;;;;;;;5092581;27;45544;-72
2022/06/21 04:40:46;;;;;;;;;3.00;2.00;;;;;;;;5093295;27;46488;-71
2022/06/21 04:43:21;;;;;;;;;1.00;1.00;;;;;;;;5092832;27;45691;-72
2022/06/21 04:45:58;;;;;;;;;3.00;1.00;;;;;;;;5093841;27;45520;-72
2022/06/21 04:48:28;;;;;;;;;4.67;2.33;;;;;;;;5090215;27;45535;-72
2022/06/21 04:50:58;;;;;;;;;2.00;2.00;;;;;;;;5093250;27;46437;-72
2022/06/21 04:53:29;;;;;;;;;2.33;1.67;;;;;;;;5092937;27;45450;-72
2022/06/21 04:56:01;;;;;;;;;2.00;2.00;;;;;;;;5092997;27;45509;-72
2022/06/21 04:58:26;;;;;;;;;2.00;2.00;;;;;;;;5091107;27;45325;-72
2022/06/21 05:00:52;;;;;;;;;2.67;2.33;;;;;;;;5092782;27;46999;-72
2022/06/21 05:03:38;;;;;;;;;3.00;1.67;;;;;;;;5095104;27;45362;-72
2022/06/21 05:06:03;;;;;;;;;2.00;2.00;;;;;;;;5094548;27;45474;-72
2022/06/21 05:08:29;;;;;;;;;2.67;2.67;;;;;;;;5093258;27;45492;-71
2022/06/21 05:10:56;;;;;;;;;2.00;2.00;;;;;;;;5093244;27;45405;-72
2022/06/21 05:13:21;;;;;;;;;1.33;1.33;;;;;;;;5091065;27;45511;-72
2022/06/21 05:15:47;;;;;;;;;2.67;2.67;;;;;;;;5092223;27;45636;-72
2022/06/21 05:18:24;;;;;;;;;2.67;2.67;;;;;;;;5091172;27;45401;-72
2022/06/21 05:20:57;;;;;;;;;2.00;2.00;;;;;;;;5091445;27;45489;-72
2022/06/21 05:23:23;;;;;;;;;2.00;2.00;;;;;;;;5091273;27;45398;-72
2022/06/21 05:25:49;;;;;;;;;4.00;2.33;;;;;;;;5093957;27;45480;-72
2022/06/21 05:28:34;;;;;;;;;2.00;2.00;;;;;;;;5096317;27;45430;-72
2022/06/21 05:31:03;;;;;;;;;2.00;2.00;;;;;;;;5091788;27;46185;-71
2022/06/21 05:33:33;;;;;;;;;2.00;1.67;;;;;;;;5096829;27;45459;-72
2022/06/21 05:36:00;;;;;;;;;1.00;1.00;;;;;;;;5096987;27;45406;-72
2022/06/21 05:38:27;;;;;;;;;2.33;2.33;;;;;;;;5094385;27;45350;-72
2022/06/21 05:40:57;;;;;;;;;1.00;1.00;;;;;;;;5094271;27;47091;-72
2022/06/21 05:43:26;;;;;;;;;1.00;1.00;;;;;;;;5095720;27;45456;-72
2022/06/21 05:45:56;;;;;;;;;1.67;1.67;;;;;;;;5096567;27;45305;-72
2022/06/21 05:48:26;;;;;;;;;2.67;2.67;;;;;;;;5097305;27;45210;-72
2022/06/21 05:50:52;;;;;;;;;4.00;4.00;;;;;;;;5098047;27;46263;-76
2022/06/21 05:53:23;;;;;;;;;4.67;2.00;;;;;;;;5094452;27;45369;-72
2022/06/21 05:55:49;;;;;;;;;2.67;2.67;;;;;;;;5089479;27;45449;-72
2022/06/21 05:58:17;;;;;;;;;2.00;2.00;;;;;;;;5095617;27;45496;-72
2022/06/21 06:00:55;;;;;;;;;3.00;3.00;;;;;;;;5087720;27;46240;-72
2022/06/21 06:03:37;;;;;;;;;4.00;2.33;;;;;;;;5093151;27;45375;-72
2022/06/21 06:06:05;;;;;;;;;1.33;1.33;;;;;;;;5097267;27;45544;-72
2022/06/21 06:08:36;;;;;;;;;2.00;2.00;;;;;;;;5094674;27;45535;-72
2022/06/21 06:11:02;;;;;;;;;4.00;2.00;;;;;;;;5091263;27;46163;-71
2022/06/21 06:13:30;;;;;;;;;1.67;1.00;;;;;;;;5088589;27;45558;-71
2022/06/21 06:15:58;;;;;;;;;3.00;3.00;;;;;;;;5094695;27;45571;-71
2022/06/21 06:18:27;;;;;;;;;3.33;2.33;;;;;;;;5090585;27;45463;-71
2022/06/21 06:20:58;;;;;;;;;2.00;2.00;;;;;;;;5093864;27;47123;-71
2022/06/21 06:23:30;;;;;;;;;2.00;2.00;;;;;;;;5095167;27;45491;-73
2022/06/21 06:26:01;;;;;;;;;2.00;2.00;;;;;;;;5094544;27;45356;-74
2022/06/21 06:28:29;;;;;;;;;2.67;2.67;;;;;;;;5094804;27;45478;-74
2022/06/21 06:31:12;;;;;;;;;2.33;2.33;;;;;;;;5095295;27;46245;-75
2022/06/21 06:33:39;;;;;;;;;1.00;1.00;;;;;;;;5095416;27;45499;-74
2022/06/21 06:36:08;;;;;;;;;1.67;1.67;;;;;;;;5097103;27;45360;-73
2022/06/21 06:38:34;;;;;;;;;2.00;2.00;;;;;;;;5094705;27;45454;-73
2022/06/21 06:41:26;;;;;;;;;1.33;1.00;;;;;;;;5094897;27;45693;-73
2022/06/21 06:43:55;;;;;;;;;2.00;2.00;;;;;;;;5090323;27;45449;-73
2022/06/21 06:46:26;;;;;;;;;3.33;3.00;;;;;;;;5092907;27;45496;-73
2022/06/21 06:48:54;;;;;;;;;3.00;3.00;;;;;;;;5096638;27;45268;-73
2022/06/21 06:51:37;;;;;;;;;3.33;3.00;;;;;;;;5096463;27;45457;-73
2022/06/21 06:54:05;;;;;;;;;3.00;3.00;;;;;;;;5096645;27;45358;-73
2022/06/21 06:56:44;;;;;;;;;1.33;1.33;;;;;;;;5093061;27;45338;-74
2022/06/21 06:59:12;;;;;;;;;2.67;2.67;;;;;;;;5096453;27;45406;-74
2022/06/21 07:01:43;;;;;;;;;3.00;3.00;;;;;;;;5094598;27;46326;-73
2022/06/21 07:04:11;;;;;;;;;2.67;2.67;;;;;;;;5091346;27;45401;-74
2022/06/21 07:06:45;;;;;;;;;1.00;1.00;;;;;;;;5094614;27;45589;-74
2022/06/21 07:09:21;;;;;;;;;2.33;2.33;;;;;;;;5096244;27;46087;-74
2022/06/21 07:11:51;;;;;;;;;1.67;1.67;;;;;;;;5096258;27;46143;-74
2022/06/21 07:14:21;;;;;;;;;1.33;1.33;;;;;;;;5095559;27;45549;-74
2022/06/21 07:16:49;;;;;;;;;1.00;1.00;;;;;;;;5094809;27;45374;-74
2022/06/21 07:19:15;;;;;;;;;3.00;3.00;;;;;;;;5094975;27;45474;-73
2022/06/21 07:21:41;;;;;;;;;3.00;2.00;;;;;;;;5095299;27;45435;-73
2022/06/21 07:24:13;;;;;;;;;3.00;3.00;;;;;;;;5096486;27;45488;-73
2022/06/21 07:26:41;;;;;;;;;2.00;2.00;;;;;;;;5094402;27;45367;-73
2022/06/21 07:29:14;;;;;;;;;2.33;2.33;;;;;;;;5092061;27;45281;-73
2022/06/21 07:31:41;;;;;;;;;2.00;2.00;;;;;;;;5094166;27;46376;-74
2022/06/21 07:34:15;;;;;;;;;2.67;2.00;;;;;;;;5094489;27;45335;-73
2022/06/21 07:36:45;;;;;;;;;3.00;2.00;;;;;;;;5093886;27;45413;-73
2022/06/21 07:39:17;;;;;;;;;2.00;2.00;;;;;;;;5096913;27;45381;-73
2022/06/21 07:41:45;;;;;;;;;2.00;2.00;;;;;;;;5093362;27;51076;-72
2022/06/21 07:44:14;;;;;;;;;3.00;3.00;;;;;;;;5094583;27;45536;-73
2022/06/21 07:46:46;;;;;;;;;3.33;2.33;;;;;;;;5093980;27;45401;-73
2022/06/21 07:49:20;;;;;;;;;3.33;3.33;;;;;;;;5094020;27;45586;-73
2022/06/21 07:51:49;;;;;;;;;3.00;3.00;;;;;;;;5086642;27;46162;-73
2022/06/21 07:54:16;;;;;;;;;2.00;2.00;;;;;;;;5092170;27;45380;-73
2022/06/21 07:56:44;;;;;;;;;2.00;2.00;;;;;;;;5094130;27;45363;-73
2022/06/21 07:59:18;;;;;;;;;1.67;1.67;;;;;;;;5094814;27;45428;-73
2022/06/21 08:07:35;;;;;;;;;6.67;3.00;;;;;;;;5095765;27;48030;-73
2022/06/21 08:10:06;;;;;;;;;4.00;4.00;;;;;;;;5091886;27;45618;-73
2022/06/21 08:12:31;;;;;;;;;3.00;3.00;;;;;;;;5093913;27;46196;-74
2022/06/21 08:14:58;;;;;;;;;3.00;3.00;;;;;;;;5096039;27;45426;-73
2022/06/21 08:17:42;;;;;;;;;2.00;2.00;;;;;;;;5093817;27;45505;-74
2022/06/21 08:20:17;;;;;;;;;2.00;2.00;;;;;;;;5093486;27;45478;-73
2022/06/21 08:22:48;;;;;;;;;3.00;3.00;;;;;;;;5093473;27;46337;-74
2022/06/21 08:25:27;;;;;;;;;1.67;1.67;;;;;;;;5092282;27;45429;-73
2022/06/21 08:27:55;;;;;;;;;2.67;2.67;;;;;;;;5087679;27;45547;-74
2022/06/21 08:30:47;;;;;;;;;3.00;3.00;;;;;;;;5094983;27;45310;-74
2022/06/21 08:33:17;;;;;;;;;2.75;2.75;;;;;;;;5067152;28;46203;-74
2022/06/21 08:35:47;;;;;;;;;5.00;3.00;;;;;;;;5068719;28;45427;-74
2022/06/21 08:38:28;;;;;;;;;2.33;2.33;;;;;;;;5058528;28;45396;-74
2022/06/21 08:41:03;;;;;;;;;3.67;2.33;;;;;;;;5057732;28;45498;-74
2022/06/21 08:43:34;;;;;;;;;3.00;3.00;;;;;;;;5058708;28;45438;-74
2022/06/21 08:46:10;;;;;;;;;2.33;2.33;;;;;;;;5055874;28;45519;-74
2022/06/21 08:48:53;;;;;;;;;3.00;2.00;;;;;;;;5065231;28;45512;-74
2022/06/21 08:51:33;;;;;;;;;3.00;3.00;;;;;;;;5068847;28;45398;-74
2022/06/21 08:54:08;;;;;;;;;4.67;2.67;;;;;;;;5058931;28;45865;-73
2022/06/21 08:56:52;;;;;;;;;4.00;3.00;;;;;;;;5065747;28;45467;-74
2022/06/21 08:59:20;;;;;;;;;3.67;3.67;;;;;;;;5069601;28;45558;-74
2022/06/21 09:02:04;;;;;;;;;2.00;2.00;;;;;;;;5073037;28;45415;-74
2022/06/21 09:04:38;;;;;;;;;2.67;2.00;;;;;;;;5061545;28;46112;-72
2022/06/21 09:07:22;;;;;;;;;3.00;3.00;;;;;;;;5073565;28;45436;-73
2022/06/21 09:09:47;;;;;;;;;3.33;3.33;;;;;;;;5073865;27;45415;-73
2022/06/21 09:12:27;;;;;;;;;5.25;3.25;;;;;;;;5099511;27;45491;-74
2022/06/21 09:15:04;;;;;;;;;3.33;3.00;;;;;;;;5097781;27;45526;-74
2022/06/21 09:17:35;;;;;;;;;3.00;3.00;;;;;;;;5095386;27;45591;-73
2022/06/21 09:20:21;;;;;;;;;5.00;3.00;;;;;;;;5096295;27;45459;-73
2022/06/21 09:22:47;;;;;;;;;3.00;3.00;;;;;;;;5094798;27;45584;-73
2022/06/21 09:25:24;;;;;;;;;3.67;3.00;;;;;;;;5096553;27;46023;-73
2022/06/21 09:27:50;;;;;;;;;3.00;3.00;;;;;;;;5092384;27;45400;-73
2022/06/21 09:30:21;;;;;;;;;2.67;2.67;;;;;;;;5098810;27;45554;-73
2022/06/21 09:33:06;;;;;;;;;2.00;2.00;;;;;;;;5095402;27;45413;-73
2022/06/21 09:35:40;;;;;;;;;4.00;4.00;;;;;;;;5094296;27;46195;-73
2022/06/21 09:38:17;;;;;;;;;3.00;2.67;;;;;;;;5094507;27;45421;-72
2022/06/21 09:40:50;;;;;;;;;3.00;3.00;;;;;;;;5094820;27;45384;-73
2022/06/21 09:43:21;;;;;;;;;3.00;3.00;;;;;;;;5096175;27;45420;-73
2022/06/21 09:46:07;;;;;;;;;3.00;2.67;;;;;;;;5089560;27;46209;-72
2022/06/21 09:48:43;;;;;;;;;4.33;4.00;;;;;;;;5093642;27;45232;-72
2022/06/21 09:51:17;;;;;;;;;3.33;3.00;;;;;;;;5097680;27;45452;-73
2022/06/21 09:54:01;;;;;;;;;3.00;3.00;;;;;;;;5096097;27;45372;-73
2022/06/21 09:56:26;;;;;;;;;3.33;2.67;;;;;;;;5095560;27;47174;-73
2022/06/21 09:59:07;;;;;;;;;5.00;3.00;;;;;;;;5097669;27;45484;-72
2022/06/21 10:01:32;;;;;;;;;4.33;3.33;;;;;;;;5095409;27;45239;-73
2022/06/21 10:04:15;;;;;;;;;4.00;4.00;;;;;;;;5094464;27;45629;-73
2022/06/21 10:07:01;;;;;;;;;3.33;2.67;;;;;;;;5095511;27;45452;-73
2022/06/21 10:09:45;;;;;;;;;1.67;1.33;;;;;;;;5096821;27;45351;-73
2022/06/21 10:12:29;;;;;;;;;2.00;2.00;;;;;;;;5096476;27;45342;-73
2022/06/21 10:14:56;;;;;;;;;2.00;2.00;;;;;;;;5097474;27;45527;-73
2022/06/21 10:17:25;;;;;;;;;3.67;3.67;;;;;;;;5094762;27;45376;-73
2022/06/21 10:20:07;;;;;;;;;3.00;3.00;;;;;;;;5097011;27;45386;-73
2022/06/21 10:22:57;;;;;;;;;5.67;3.00;;;;;;;;5096626;27;45394;-73
2022/06/21 10:25:44;;;;;;;;;4.50;3.00;;;;;;;;5096562;27;45560;-73
2022/06/21 10:28:09;;;;;;;;;2.67;2.67;;;;;;;;5079209;27;45452;-72
2022/06/21 10:30:35;;;;;;;;;1.67;1.67;;;;;;;;5095177;27;45440;-73
2022/06/21 10:33:06;;;;;;;;;2.00;2.00;;;;;;;;5095856;27;45422;-72
2022/06/21 10:35:43;;;;;;;;;3.00;2.00;;;;;;;;5096138;27;45435;-73
2022/06/21 10:38:26;;;;;;;;;6.00;4.00;;;;;;;;5095377;27;47161;-73
2022/06/21 10:41:03;;;;;;;;;3.00;3.00;;;;;;;;5092982;27;45565;-73
2022/06/21 10:43:34;;;;;;;;;3.00;3.00;;;;;;;;5094751;27;45420;-73
2022/06/21 10:46:06;;;;;;;;;5.00;2.67;;;;;;;;5095105;27;45433;-73
2022/06/21 10:48:48;;;;;;;;;3.00;3.00;;;;;;;;5095951;27;45445;-73
2022/06/21 10:51:30;;;;;;;;;2.33;2.33;;;;;;;;5097361;27;45318;-73
2022/06/21 10:53:55;;;;;;;;;4.00;4.00;;;;;;;;5096920;27;45463;-73
2022/06/21 10:59:10;;;;;;;;;2.67;2.67;;;;;;;;5094445;27;45766;-73
2022/06/21 11:01:50;;;;;;;;;5.67;3.00;;;;;;;;5092893;27;45397;-73
2022/06/21 11:04:18;;;;;;;;;3.00;3.00;;;;;;;;5095024;27;45583;-73
2022/06/21 11:06:58;;;;;;;;;3.00;3.00;;;;;;;;5094060;27;45523;-72
2022/06/21 11:09:44;;;;;;;;;2.00;2.00;;;;;;;;5092823;27;46369;-72
2022/06/21 11:15:05;;;;;;;;;4.00;4.00;;;;;;;;5095905;27;45445;-73
2022/06/21 11:17:45;;;;;;;;;4.00;4.00;;;;;;;;5095844;27;45456;-73
2022/06/21 11:20:29;;;;;;;;;4.00;4.00;;;;;;;;5092874;27;46150;-73
2022/06/21 11:22:55;;;;;;;;;4.33;4.33;;;;;;;;5094274;27;48405;-73
2022/06/21 11:25:20;;;;;;;;;3.00;3.00;;;;;;;;5094761;27;45345;-73
2022/06/21 11:27:48;;;;;;;;;3.00;3.00;;;;;;;;5094315;27;45526;-73
2022/06/21 11:30:17;;;;;;;;;3.33;3.33;;;;;;;;5096319;27;46340;-72
2022/06/21 11:32:54;;;;;;;;;3.00;3.00;;;;;;;;5094130;27;45404;-72
2022/06/21 11:35:28;;;;;;;;;5.00;5.00;;;;;;;;5094281;27;45443;-73
2022/06/21 11:38:03;;;;;;;;;3.67;3.67;;;;;;;;5094205;27;45501;-73
2022/06/21 11:40:55;;;;;;;;;2.67;2.67;;;;;;;;5092431;27;46438;-73
2022/06/21 11:43:22;;;;;;;;;4.00;2.00;;;;;;;;5091732;27;45294;-73
2022/06/21 11:45:49;;;;;;;;;4.00;3.67;;;;;;;;5088426;27;45336;-74
2022/06/21 11:48:33;;;;;;;;;5.67;3.00;;;;;;;;5092115;27;45319;-74
2022/06/21 11:51:04;;;;;;;;;2.67;2.67;;;;;;;;5093571;27;45486;-73
2022/06/21 11:53:38;;;;;;;;;3.33;3.33;;;;;;;;5093925;27;45599;-74
2022/06/21 11:56:08;;;;;;;;;2.67;2.67;;;;;;;;5092461;27;45428;-74
2022/06/21 11:58:56;;;;;;;;;2.33;2.33;;;;;;;;5094885;27;45445;-73
2022/06/21 12:01:30;;;;;;;;;3.00;3.00;;;;;;;;5091850;27;47549;-73
2022/06/21 12:04:01;;;;;;;;;3.00;3.00;;;;;;;;5093700;27;45499;-74
2022/06/21 12:06:29;;;;;;;;;3.00;3.00;;;;;;;;5092025;27;45435;-74
2022/06/21 12:09:00;;;;;;;;;5.00;4.00;;;;;;;;5093959;27;45460;-74
2022/06/21 12:11:44;;;;;;;;;3.00;3.00;;;;;;;;5093266;27;45535;-73
2022/06/21 12:14:28;;;;;;;;;2.00;2.00;;;;;;;;5093355;27;45446;-73
2022/06/21 12:17:22;;;;;;;;;3.00;3.00;;;;;;;;5093860;27;45627;-73
2022/06/21 12:19:57;;;;;;;;;4.00;4.00;;;;;;;;5092536;27;45552;-73
2022/06/21 12:22:32;;;;;;;;;3.00;3.00;;;;;;;;5093473;27;46095;-73
2022/06/21 12:24:58;;;;;;;;;6.00;4.67;;;;;;;;5092039;27;45497;-74
2022/06/21 12:27:23;;;;;;;;;3.67;3.67;;;;;;;;5094857;27;45381;-73
2022/06/21 12:29:49;;;;;;;;;3.00;3.00;;;;;;;;5094680;27;45259;-73
2022/06/21 12:32:18;;;;;;;;;3.67;3.67;;;;;;;;5093867;27;46214;-73
2022/06/21 12:34:51;;;;;;;;;2.33;2.33;;;;;;;;5092600;27;45433;-73
2022/06/21 12:37:22;;;;;;;;;3.00;3.00;;;;;;;;5093987;27;45497;-73
2022/06/21 12:39:47;;;;;;;;;3.33;3.33;;;;;;;;5092076;27;45476;-73
2022/06/21 12:42:23;;;;;;;;;2.00;2.00;;;;;;;;5095342;27;45542;-73
2022/06/21 12:44:49;;;;;;;;;4.33;3.00;;;;;;;;5092858;27;45288;-74
2022/06/21 12:47:19;;;;;;;;;4.00;4.00;;;;;;;;5091207;27;45290;-73
2022/06/21 12:50:03;;;;;;;;;4.00;4.00;;;;;;;;5093083;27;45365;-73
2022/06/21 12:52:38;;;;;;;;;4.00;3.00;;;;;;;;5092650;27;45464;-74
2022/06/21 12:55:27;;;;;;;;;4.00;4.00;;;;;;;;5093282;27;45390;-74
2022/06/21 12:57:56;;;;;;;;;6.33;5.00;;;;;;;;5088003;27;45537;-73
2022/06/21 13:00:35;;;;;;;;;3.67;3.67;;;;;;;;5091718;27;45477;-73
2022/06/21 13:03:19;;;;;;;;;2.33;2.33;;;;;;;;5094634;27;46066;-73
2022/06/21 13:05:52;;;;;;;;;4.00;4.00;;;;;;;;5091540;27;45451;-73
2022/06/21 13:08:17;;;;;;;;;5.67;2.67;;;;;;;;5091503;27;45630;-73
2022/06/21 13:11:02;;;;;;;;;3.33;3.33;;;;;;;;5092674;27;45495;-73
2022/06/21 13:13:43;;;;;;;;;5.67;3.00;;;;;;;;5049547;28;46116;-73
2022/06/21 13:16:21;;;;;;;;;4.67;4.67;;;;;;;;5050275;28;45593;-73
2022/06/21 13:18:49;;;;;;;;;3.00;3.00;;;;;;;;5051124;28;45451;-73
2022/06/21 13:21:17;;;;;;;;;2.33;1.33;;;;;;;;5052114;28;45731;-73
2022/06/21 13:23:42;;;;;;;;;5.67;4.67;;;;;;;;5049107;28;47367;-74
2022/06/21 13:26:26;;;;;;;;;3.75;3.75;;;;;;;;5033384;28;45913;-73
2022/06/21 13:29:10;;;;;;;;;3.00;3.00;;;;;;;;5050137;28;45509;-73
2022/06/21 13:31:53;;;;;;;;;4.00;4.00;;;;;;;;5049986;28;45451;-73
2022/06/21 13:34:26;;;;;;;;;3.67;3.67;;;;;;;;5049961;28;46210;-73
2022/06/21 13:36:54;;;;;;;;;5.33;4.00;;;;;;;;5047950;28;46427;-73
2022/06/21 13:39:25;;;;;;;;;5.33;4.33;;;;;;;;5051454;28;45365;-73
2022/06/21 13:45:12;;;;;;;;;4.67;4.67;;;;;;;;5050841;28;45295;-73
2022/06/21 13:48:00;;;;;;;;;5.67;5.00;;;;;;;;5053236;28;45454;-74
2022/06/21 13:50:34;;;;;;;;;4.00;4.00;;;;;;;;5064554;27;45452;-73
2022/06/21 13:53:16;;;;;;;;;4.00;4.00;;;;;;;;5095696;27;45563;-73
2022/06/21 13:55:51;;;;;;;;;5.33;5.33;;;;;;;;5090693;27;47182;-73
2022/06/21 13:58:37;;;;;;;;;5.00;5.00;;;;;;;;5093928;27;45434;-73
2022/06/21 14:01:12;;;;;;;;;6.50;5.25;;;;;;;;5091702;27;45437;-73
2022/06/21 14:04:04;;;;;;;;;5.33;5.33;;;;;;;;5095653;27;45341;-73
2022/06/21 14:06:38;;;;;;;;;5.00;5.00;;;;;;;;5091581;27;46936;-73
2022/06/21 14:09:09;;;;;;;;;5.50;5.00;;;;;;;;5096038;27;45442;-73
2022/06/21 14:11:39;;;;;;;;;5.00;5.00;;;;;;;;5095693;27;45517;-74
2022/06/21 14:14:23;;;;;;;;;5.00;4.67;;;;;;;;5094330;27;45360;-73
2022/06/21 14:16:52;;;;;;;;;4.33;4.33;;;;;;;;5094026;27;45439;-73
2022/06/21 14:19:23;;;;;;;;;7.33;5.33;;;;;;;;5095541;27;45350;-73
2022/06/21 14:21:54;;;;;;;;;6.67;6.67;;;;;;;;5091436;27;45339;-73
2022/06/21 14:24:26;;;;;;;;;6.00;6.00;;;;;;;;5093400;27;45390;-73
2022/06/21 14:27:03;;;;;;;;;5.00;5.00;;;;;;;;5096197;27;46564;-73
2022/06/21 14:29:40;;;;;;;;;6.33;6.33;;;;;;;;5095452;27;45463;-73
2022/06/21 14:32:06;;;;;;;;;6.00;5.75;;;;;;;;5095224;27;45379;-73
2022/06/21 14:34:34;;;;;;;;;3.33;3.33;;;;;;;;5095173;27;45378;-73
2022/06/21 14:37:12;;;;;;;;;5.00;5.00;;;;;;;;5095075;27;47035;-73
2022/06/21 14:39:40;;;;;;;;;5.67;5.67;;;;;;;;5096109;27;45529;-74
2022/06/21 14:42:18;;;;;;;;;5.67;5.67;;;;;;;;5097592;27;45484;-73
2022/06/21 14:44:49;;;;;;;;;6.00;5.33;;;;;;;;5094773;27;45273;-74
2022/06/21 14:47:20;;;;;;;;;4.00;4.00;;;;;;;;5093887;27;45356;-73
2022/06/21 14:49:54;;;;;;;;;6.75;5.25;;;;;;;;5092730;27;45515;-74
2022/06/21 14:52:20;;;;;;;;;5.00;5.00;;;;;;;;5094570;27;45425;-74
2022/06/21 14:55:04;;;;;;;;;7.00;5.67;;;;;;;;5094312;27;45545;-79
2022/06/21 14:57:48;;;;;;;;;4.00;4.00;;;;;;;;5093081;27;46324;-75
2022/06/21 15:00:19;;;;;;;;;4.33;4.33;;;;;;;;5096875;27;45463;-75
2022/06/21 15:02:47;;;;;;;;;6.00;6.00;;;;;;;;5091586;27;45389;-76
2022/06/21 15:05:12;;;;;;;;;5.00;5.00;;;;;;;;5096738;27;45511;-75
2022/06/21 15:07:53;;;;;;;;;3.33;3.33;;;;;;;;5095595;27;46343;-75
2022/06/21 15:10:22;;;;;;;;;6.33;4.67;;;;;;;;5093684;27;45584;-75
2022/06/21 15:12:51;;;;;;;;;7.00;5.00;;;;;;;;5088644;27;45417;-75
2022/06/21 15:15:18;;;;;;;;;5.67;5.67;;;;;;;;5095959;27;45393;-76
2022/06/21 15:18:02;;;;;;;;;7.67;6.67;;;;;;;;5092461;27;45326;-75
2022/06/21 15:20:29;;;;;;;;;3.67;3.67;;;;;;;;5094507;27;45815;-75
2022/06/21 15:22:55;;;;;;;;;6.00;5.00;;;;;;;;5094398;27;45355;-76
2022/06/21 15:25:20;;;;;;;;;5.00;5.00;;;;;;;;5094916;27;45664;-75
2022/06/21 15:28:12;;;;;;;;;4.50;4.00;;;;;;;;5093777;27;45188;-75